Time;durP1;ratioP1;P1;durP2;ratioP2;P2;SDS_P1;SDS_P2;PMS_P1;PMS_P2;Temp;Humidity;BMP_temperature;BMP_pressure;BME280_temperature;BME280_humidity;BME280_pressure;Samples;Min_cycle;Max_cycle;Signal;HPM_P1;HPM_P2
2023/03/04 00:01:33;;;;;;;67.70;31.70;;;;;;;2.61;64.61;99093.13;234953;1193;138856;-70
2023/03/04 00:06:36;;;;;;;69.50;29.70;;;;;;;2.54;64.74;99086.69;235069;1194;139156;-67
2023/03/04 00:11:40;;;;;;;65.30;31.10;;;;;;;2.54;65.02;99079.68;234950;1195;138997;-67
2023/03/04 00:16:43;;;;;;;61.00;29.00;;;;;;;2.58;65.05;99070.11;235096;1194;138671;-67
2023/03/04 00:21:46;;;;;;;61.50;30.90;;;;;;;2.56;64.73;99066.69;234904;1193;139910;-67
2023/03/04 00:26:50;;;;;;;48.20;24.50;;;;;;;2.56;64.65;99057.02;234879;1197;139265;-69
2023/03/04 00:31:53;;;;;;;53.00;25.30;;;;;;;2.58;64.81;99040.52;234968;1198;139938;-67
2023/03/04 00:37:00;;;;;;;56.20;28.10;;;;;;;2.66;64.61;99033.27;235001;1194;139710;-68
2023/03/04 00:42:04;;;;;;;59.40;29.50;;;;;;;2.79;64.20;99025.67;234870;1197;138584;-68
2023/03/04 00:47:07;;;;;;;61.10;29.40;;;;;;;2.80;64.39;99018.98;235099;1194;139186;-67
2023/03/04 00:52:10;;;;;;;61.70;29.20;;;;;;;2.79;64.40;99016.03;234992;1195;138691;-67
2023/03/04 00:57:13;;;;;;;60.90;28.90;;;;;;;2.73;64.57;99008.70;234927;1196;138690;-68
2023/03/04 01:02:17;;;;;;;57.00;28.10;;;;;;;2.67;64.53;98994.88;234995;1197;139805;-67
2023/03/04 01:07:21;;;;;;;59.90;28.40;;;;;;;2.64;64.75;98978.51;234851;1196;139114;-67
2023/03/04 01:12:24;;;;;;;55.70;26.90;;;;;;;2.63;64.75;98964.89;234954;1195;138924;-68
2023/03/04 01:17:28;;;;;;;59.40;27.80;;;;;;;2.53;64.96;98961.00;234934;1195;138988;-69
2023/03/04 01:22:31;;;;;;;62.30;29.60;;;;;;;2.45;65.28;98953.87;234962;1194;138852;-70
2023/03/04 01:27:34;;;;;;;51.90;26.80;;;;;;;2.49;65.45;98946.42;234910;1193;138647;-68
2023/03/04 01:32:38;;;;;;;55.00;26.80;;;;;;;2.56;65.57;98935.15;234923;1194;139034;-68
2023/03/04 01:37:41;;;;;;;60.10;28.80;;;;;;;2.67;65.16;98930.08;235000;1195;139930;-68
2023/03/04 01:42:45;;;;;;;56.90;27.30;;;;;;;2.68;65.08;98926.39;235003;1195;138401;-69
2023/03/04 01:47:49;;;;;;;57.80;27.80;;;;;;;2.75;65.04;98916.16;235056;1196;139144;-68
2023/03/04 01:52:52;;;;;;;54.80;26.80;;;;;;;2.81;64.77;98916.65;235134;1197;138710;-69
2023/03/04 01:57:56;;;;;;;53.40;26.80;;;;;;;2.76;64.64;98910.86;234968;1195;138627;-68
2023/03/04 02:03:10;;;;;;;51.30;26.70;;;;;;;2.70;64.83;98916.85;234935;1198;138535;-69
2023/03/04 02:08:15;;;;;;;52.10;25.60;;;;;;;2.65;64.93;98908.27;234978;1196;139245;-69
2023/03/04 02:13:19;;;;;;;61.60;27.50;;;;;;;2.66;65.14;98906.48;234886;1194;139004;-69
2023/03/04 02:18:24;;;;;;;50.80;25.10;;;;;;;2.68;65.02;98901.16;234964;1195;138795;-67
2023/03/04 02:23:37;;;;;;;56.00;26.90;;;;;;;2.69;64.95;98896.38;234972;1195;139407;-67
2023/03/04 02:28:41;;;;;;;48.20;23.80;;;;;;;2.64;65.09;98899.52;235103;1195;139335;-70
2023/03/04 02:33:44;;;;;;;50.10;25.50;;;;;;;2.62;65.04;98897.33;234960;1196;139488;-70
2023/03/04 02:38:52;;;;;;;54.40;25.60;;;;;;;2.70;65.18;98891.10;234974;1195;139013;-70
2023/03/04 02:43:55;;;;;;;50.80;25.00;;;;;;;2.82;65.05;98881.41;234882;1195;139699;-70
2023/03/04 02:48:59;;;;;;;49.00;23.90;;;;;;;2.87;64.65;98878.63;234997;1195;138953;-69
2023/03/04 02:54:04;;;;;;;51.50;25.70;;;;;;;2.84;64.65;98860.69;234785;1196;139219;-69
2023/03/04 02:59:07;;;;;;;46.50;23.70;;;;;;;2.86;64.61;98849.39;235041;1196;139272;-69
2023/03/04 03:04:11;;;;;;;43.00;22.00;;;;;;;2.81;64.58;98837.63;234905;1195;138971;-68
2023/03/04 03:09:17;;;;;;;45.10;22.50;;;;;;;2.77;64.47;98837.10;234880;1194;139010;-68
2023/03/04 03:14:20;;;;;;;49.30;24.10;;;;;;;2.72;64.55;98846.73;234876;1198;138700;-68
2023/03/04 03:19:24;;;;;;;48.50;23.60;;;;;;;2.69;64.67;98843.69;234944;1196;138616;-68
2023/03/04 03:24:27;;;;;;;45.00;22.20;;;;;;;2.70;64.58;98831.36;234915;1196;139691;-68
2023/03/04 03:29:31;;;;;;;44.90;21.00;;;;;;;2.77;64.61;98822.90;234947;1195;139188;-68
2023/03/04 03:34:34;;;;;;;41.20;21.40;;;;;;;2.88;64.37;98823.22;235064;1198;138784;-69
2023/03/04 03:39:40;;;;;;;44.40;21.80;;;;;;;2.92;63.97;98832.03;234907;1195;138787;-68
2023/03/04 03:44:44;;;;;;;40.00;20.70;;;;;;;2.90;64.00;98832.29;235017;1197;138833;-69
2023/03/04 03:49:50;;;;;;;41.10;20.60;;;;;;;2.94;63.77;98823.21;234992;1198;138894;-69
2023/03/04 03:54:53;;;;;;;43.20;22.10;;;;;;;2.93;63.86;98817.79;234993;1195;140197;-70
2023/03/04 03:59:56;;;;;;;77.10;44.70;;;;;;;2.88;64.06;98826.20;234963;1198;139080;-69
2023/03/04 04:05:00;;;;;;;117.30;63.40;;;;;;;2.96;63.88;98821.70;235027;1193;138736;-67
2023/03/04 04:10:04;;;;;;;41.90;22.70;;;;;;;2.94;63.51;98824.25;234857;1196;139747;-66
2023/03/04 04:15:10;;;;;;;42.20;22.60;;;;;;;2.88;63.09;98818.66;234851;1195;139505;-67
2023/03/04 04:20:14;;;;;;;44.90;23.50;;;;;;;2.76;63.09;98825.56;234887;1197;139237;-68
2023/03/04 04:25:17;;;;;;;138.80;79.30;;;;;;;2.70;63.35;98819.45;234787;1197;138683;-71
2023/03/04 04:30:20;;;;;;;44.70;24.00;;;;;;;2.70;63.85;98819.81;234868;1198;140689;-71
2023/03/04 04:35:23;;;;;;;44.40;24.20;;;;;;;2.77;63.57;98819.40;233229;1196;138808;-70
2023/03/04 04:40:26;;;;;;;46.20;24.50;;;;;;;2.82;63.24;98817.64;235091;1198;141699;-71
2023/03/04 04:45:30;;;;;;;48.30;24.60;;;;;;;2.79;63.16;98813.20;234985;1197;139268;-72
2023/03/04 04:50:33;;;;;;;46.90;24.30;;;;;;;2.76;63.11;98808.23;235010;1195;139613;-70
2023/03/04 04:55:36;;;;;;;67.70;36.70;;;;;;;2.77;63.77;98805.91;234871;1195;138667;-69
2023/03/04 05:00:40;;;;;;;44.60;24.50;;;;;;;2.72;63.16;98807.46;234873;1196;138628;-69
2023/03/04 05:05:43;;;;;;;47.00;24.20;;;;;;;2.59;63.28;98804.05;233330;1199;138881;-70
2023/03/04 05:10:46;;;;;;;50.70;24.80;;;;;;;2.61;63.30;98793.31;234551;1196;138555;-70
2023/03/04 05:15:52;;;;;;;45.80;24.60;;;;;;;2.70;63.36;98786.36;234808;1197;139125;-70
2023/03/04 05:20:58;;;;;;;49.10;26.60;;;;;;;2.80;62.95;98777.59;234865;1196;139010;-71
2023/03/04 05:26:03;;;;;;;46.40;25.90;;;;;;;2.68;63.12;98780.80;234991;1197;139230;-71
2023/03/04 05:31:07;;;;;;;44.80;24.50;;;;;;;2.59;63.35;98777.98;234923;1199;138613;-71
2023/03/04 05:36:10;;;;;;;40.80;23.50;;;;;;;2.59;63.42;98776.90;234995;1198;138901;-70
2023/03/04 05:41:14;;;;;;;46.60;24.50;;;;;;;2.51;63.45;98766.49;235082;1196;138725;-70
2023/03/04 05:46:24;;;;;;;45.00;23.80;;;;;;;2.52;63.56;98765.59;235107;1198;140103;-70
2023/03/04 05:51:27;;;;;;;48.80;24.20;;;;;;;2.47;63.70;98763.48;234932;1198;138465;-70
2023/03/04 05:56:32;;;;;;;42.10;22.40;;;;;;;2.49;63.66;98763.40;234971;1198;139251;-70
2023/03/04 06:01:35;;;;;;;44.30;23.00;;;;;;;2.46;63.73;98760.04;234970;1198;139016;-70
2023/03/04 06:06:38;;;;;;;44.60;22.50;;;;;;;2.50;63.82;98756.56;234925;1198;138653;-70
2023/03/04 06:11:42;;;;;;;38.40;21.00;;;;;;;2.48;64.02;98763.09;234901;1196;138761;-70
2023/03/04 06:16:45;;;;;;;40.00;22.60;;;;;;;2.55;63.92;98763.92;235050;1197;139661;-70
2023/03/04 06:21:48;;;;;;;45.10;23.20;;;;;;;2.61;63.82;98771.24;234514;1196;139406;-70
2023/03/04 06:26:52;;;;;;;45.60;23.90;;;;;;;2.71;63.53;98771.80;234952;1194;140153;-70
2023/03/04 06:31:55;;;;;;;43.40;23.90;;;;;;;2.81;63.38;98773.17;234927;1196;140083;-67
2023/03/04 06:36:59;;;;;;;46.30;25.10;;;;;;;2.99;63.28;98769.22;235028;1197;139023;-69
2023/03/04 06:42:02;;;;;;;43.60;24.40;;;;;;;3.05;62.79;98763.05;234927;1194;140857;-70
2023/03/04 06:47:07;;;;;;;48.40;24.20;;;;;;;3.06;62.57;98764.91;234985;1198;138662;-70
2023/03/04 06:52:11;;;;;;;43.00;24.50;;;;;;;3.01;62.67;98758.97;234824;1196;140933;-69
2023/03/04 06:57:15;;;;;;;45.80;25.20;;;;;;;2.96;62.99;98760.02;234883;1199;138666;-70
2023/03/04 07:02:18;;;;;;;46.90;25.10;;;;;;;3.04;62.64;98757.98;234912;1196;138760;-71
2023/03/04 07:07:22;;;;;;;49.80;26.30;;;;;;;3.01;62.61;98761.61;234677;1196;138718;-69
2023/03/04 07:12:25;;;;;;;48.40;25.20;;;;;;;2.96;62.44;98766.71;233950;1199;139538;-69
2023/03/04 07:17:29;;;;;;;50.50;27.30;;;;;;;2.90;62.60;98768.50;235035;1194;138962;-69
2023/03/04 07:22:32;;;;;;;47.40;26.00;;;;;;;2.87;62.44;98781.91;235128;1199;139860;-69
2023/03/04 07:27:37;;;;;;;48.60;26.80;;;;;;;2.77;62.50;98791.20;234967;1193;140697;-69
2023/03/04 07:32:40;;;;;;;52.70;27.50;;;;;;;2.75;62.06;98803.16;235094;1196;138461;-70
2023/03/04 07:37:44;;;;;;;50.10;27.40;;;;;;;2.73;62.29;98805.16;234991;1196;138562;-68
2023/03/04 07:42:51;;;;;;;52.80;28.60;;;;;;;2.74;62.25;98806.02;234920;1196;141178;-69
2023/03/04 07:47:54;;;;;;;53.00;28.10;;;;;;;2.75;62.39;98805.62;234947;1196;138742;-70
2023/03/04 07:52:57;;;;;;;50.10;26.70;;;;;;;2.73;62.42;98805.51;235015;1199;139546;-70
2023/03/04 07:58:02;;;;;;;50.60;26.20;;;;;;;2.65;62.39;98810.52;234986;1195;139265;-71
2023/03/04 08:03:05;;;;;;;50.40;25.50;;;;;;;2.51;62.71;98822.88;235058;1196;138539;-70
2023/03/04 08:08:08;;;;;;;48.20;26.70;;;;;;;2.40;62.49;98833.41;234905;1196;138934;-71
2023/03/04 08:13:11;;;;;;;50.40;24.30;;;;;;;2.34;62.56;98831.67;234905;1195;139231;-70
2023/03/04 08:18:14;;;;;;;53.60;27.40;;;;;;;2.37;62.60;98829.48;234870;1199;138760;-71
2023/03/04 08:23:18;;;;;;;47.00;24.90;;;;;;;2.47;62.45;98829.84;234970;1196;139146;-70
2023/03/04 08:28:22;;;;;;;50.00;25.50;;;;;;;2.49;62.12;98832.58;235055;1193;138582;-70
2023/03/04 08:33:25;;;;;;;44.80;22.30;;;;;;;2.57;61.67;98829.16;234950;1195;139073;-70
2023/03/04 08:38:28;;;;;;;45.00;24.10;;;;;;;2.55;61.62;98824.15;234903;1196;139405;-70
2023/03/04 08:43:33;;;;;;;44.20;24.90;;;;;;;2.40;61.44;98821.14;234910;1196;138604;-70
2023/03/04 08:48:37;;;;;;;41.30;22.30;;;;;;;2.41;61.87;98817.44;234913;1196;140039;-70
2023/03/04 08:53:41;;;;;;;44.20;23.40;;;;;;;2.50;61.56;98825.73;234863;1196;139455;-69
2023/03/04 08:58:44;;;;;;;42.80;23.80;;;;;;;2.47;61.26;98831.27;235053;1195;140283;-69
2023/03/04 09:03:47;;;;;;;42.30;22.40;;;;;;;2.42;61.63;98836.48;235092;1198;138582;-68
2023/03/04 09:08:51;;;;;;;41.40;20.80;;;;;;;2.46;61.18;98828.66;234971;1196;139759;-69
2023/03/04 09:13:54;;;;;;;45.80;23.90;;;;;;;2.50;61.37;98832.73;234905;1196;138890;-68
2023/03/04 09:18:59;;;;;;;39.80;23.10;;;;;;;2.62;61.21;98831.48;234950;1194;139358;-68
2023/03/04 09:24:03;;;;;;;40.60;23.50;;;;;;;2.68;60.66;98833.88;234998;1199;139318;-67
2023/03/04 09:29:06;;;;;;;41.30;24.10;;;;;;;2.79;60.32;98835.10;235217;1196;138531;-68
2023/03/04 09:34:09;;;;;;;41.90;25.20;;;;;;;2.77;60.32;98829.74;234851;1196;139409;-67
2023/03/04 09:39:13;;;;;;;45.30;25.90;;;;;;;2.82;60.68;98827.45;234936;1197;139501;-67
2023/03/04 09:44:27;;;;;;;44.50;24.80;;;;;;;2.85;60.54;98827.55;235054;1196;139465;-70
2023/03/04 09:49:31;;;;;;;43.10;24.20;;;;;;;2.84;60.40;98821.27;234864;1196;139241;-70
2023/03/04 09:55:03;;;;;;;35.80;20.40;;;;;;;2.91;60.44;98817.33;235075;1193;139469;-70
2023/03/04 10:00:19;;;;;;;33.50;19.20;;;;;;;2.92;59.99;98812.77;235117;1195;138946;-70
2023/03/04 10:05:26;;;;;;;31.80;17.40;;;;;;;3.00;59.51;98807.21;235030;1196;138710;-70
2023/03/04 10:10:35;;;;;;;33.00;17.80;;;;;;;3.02;59.16;98802.58;235186;1196;139359;-69
2023/03/04 10:15:43;;;;;;;26.20;16.30;;;;;;;3.01;59.35;98801.23;235011;1193;138975;-70
2023/03/04 10:20:52;;;;;;;31.90;17.90;;;;;;;3.05;59.28;98800.02;234962;1196;138606;-70
2023/03/04 10:25:59;;;;;;;32.00;17.20;;;;;;;3.10;58.96;98796.34;234998;1196;138499;-70
2023/03/04 10:31:05;;;;;;;33.30;18.10;;;;;;;3.14;58.97;98793.95;234751;1196;138788;-70
2023/03/04 10:36:29;;;;;;;33.20;20.50;;;;;;;3.14;59.15;98787.77;234909;1198;138857;-71
2023/03/04 10:41:33;;;;;;;37.50;20.70;;;;;;;3.17;59.39;98786.27;235142;1196;138707;-70
2023/03/04 10:46:44;;;;;;;40.60;24.60;;;;;;;3.26;59.35;98783.85;235212;1195;138713;-70
2023/03/04 10:52:02;;;;;;;41.40;23.20;;;;;;;3.34;59.45;98775.30;234993;1196;139822;-70
2023/03/04 10:57:22;;;;;;;43.10;24.60;;;;;;;3.38;59.39;98775.69;235142;1196;138824;-70
2023/03/04 11:02:26;;;;;;;50.30;27.70;;;;;;;3.34;59.55;98766.37;234940;1198;138877;-71
2023/03/04 11:07:40;;;;;;;51.50;28.20;;;;;;;3.23;59.88;98765.00;235025;1196;138718;-70
2023/03/04 11:12:57;;;;;;;51.40;29.10;;;;;;;3.17;60.43;98763.64;235094;1193;138695;-70
2023/03/04 11:18:04;;;;;;;53.70;29.30;;;;;;;3.20;60.46;98763.35;234862;1196;252121;-70
2023/03/04 11:23:38;;;;;;;52.60;28.90;;;;;;;3.16;60.61;98756.02;234986;1196;139429;-71
2023/03/04 11:28:50;;;;;;;52.60;30.40;;;;;;;3.07;61.16;98758.77;234995;1193;138549;-70
2023/03/04 11:34:28;;;;;;;52.70;28.70;;;;;;;3.09;61.39;98754.16;234910;1194;139097;-72
2023/03/04 11:39:40;;;;;;;55.30;29.80;;;;;;;3.07;61.15;98743.35;234873;1195;138799;-72
2023/03/04 11:44:43;;;;;;;54.40;29.90;;;;;;;3.02;61.65;98739.88;235165;1196;139517;-69
2023/03/04 11:50:08;;;;;;;178.00;91.30;;;;;;;2.98;62.01;98731.05;234973;1195;139117;-70
2023/03/04 11:55:39;;;;;;;56.00;29.40;;;;;;;2.94;62.21;98728.55;234671;1194;138843;-72
2023/03/04 12:01:05;;;;;;;74.10;42.90;;;;;;;2.93;62.07;98714.95;235027;1196;139415;-72
2023/03/04 12:06:26;;;;;;;51.90;29.00;;;;;;;2.96;62.42;98713.42;234798;1194;139111;-72
2023/03/04 12:11:39;;;;;;;52.50;28.90;;;;;;;2.98;62.14;98710.53;234755;1196;139006;-72
2023/03/04 12:17:08;;;;;;;50.80;27.80;;;;;;;3.04;62.06;98712.24;234978;1195;139337;-71
2023/03/04 12:22:30;;;;;;;52.00;27.40;;;;;;;2.99;62.26;98715.95;234811;1195;140579;-71
2023/03/04 12:28:02;;;;;;;51.80;25.10;;;;;;;3.07;62.37;98712.13;234685;1195;140412;-71
2023/03/04 12:33:23;;;;;;;49.20;26.00;;;;;;;3.01;62.49;98717.80;234781;1195;139271;-70
2023/03/04 12:38:29;;;;;;;47.40;26.40;;;;;;;2.99;62.47;98712.27;234868;1194;139835;-69
2023/03/04 12:43:48;;;;;;;49.50;26.40;;;;;;;3.05;62.75;98710.48;234760;1196;138889;-68
2023/03/04 12:49:01;;;;;;;45.00;24.10;;;;;;;3.03;62.72;98710.35;234904;1194;138927;-70
2023/03/04 12:54:10;;;;;;;43.20;23.80;;;;;;;2.94;63.05;98707.18;234889;1193;138992;-71
2023/03/04 12:59:19;;;;;;;44.90;25.00;;;;;;;2.93;63.09;98706.21;235060;1195;139947;-70
2023/03/04 13:04:36;;;;;;;54.60;31.80;;;;;;;3.01;63.39;98693.46;234984;1196;139118;-70
2023/03/04 13:10:03;;;;;;;43.10;22.60;;;;;;;3.12;63.30;98686.71;234715;1198;139222;-70
2023/03/04 13:15:06;;;;;;;47.50;23.90;;;;;;;3.27;62.94;98677.73;234737;1198;139580;-71
2023/03/04 13:20:16;;;;;;;41.20;22.70;;;;;;;3.37;62.48;98673.67;234881;1193;140240;-73
2023/03/04 13:25:42;;;;;;;39.30;22.40;;;;;;;3.44;62.49;98674.80;234896;1196;139608;-72
2023/03/04 13:30:55;;;;;;;35.60;19.40;;;;;;;3.47;62.37;98673.81;234837;1193;139764;-72
2023/03/04 13:36:04;;;;;;;38.60;20.10;;;;;;;3.44;62.29;98669.04;234948;1196;139224;-72
2023/03/04 13:41:19;;;;;;;34.40;20.20;;;;;;;3.35;62.42;98670.59;234914;1195;138995;-72
2023/03/04 13:46:23;;;;;;;40.90;22.30;;;;;;;3.33;62.68;98663.13;235049;1193;140132;-72
2023/03/04 13:51:40;;;;;;;37.10;20.60;;;;;;;3.41;62.53;98660.21;234934;1196;138768;-72
2023/03/04 13:57:08;;;;;;;37.90;21.70;;;;;;;3.46;62.54;98654.73;234866;1195;139391;-72
2023/03/04 14:02:17;;;;;;;40.00;20.90;;;;;;;3.54;62.25;98651.80;234852;1193;139384;-72
2023/03/04 14:07:28;;;;;;;86.90;52.90;;;;;;;3.53;62.16;98648.84;234775;1198;138927;-69
2023/03/04 14:12:35;;;;;;;36.10;20.70;;;;;;;3.65;62.91;98641.35;234855;1194;139027;-70
2023/03/04 14:17:40;;;;;;;38.80;21.00;;;;;;;3.64;61.77;98640.52;234780;1198;139985;-70
2023/03/04 14:22:44;;;;;;;38.80;20.30;;;;;;;3.63;62.02;98632.52;234991;1197;139072;-70
2023/03/04 14:27:47;;;;;;;37.10;19.40;;;;;;;3.70;61.80;98637.13;234840;1196;139155;-70
2023/03/04 14:32:53;;;;;;;29.40;18.60;;;;;;;3.75;61.67;98643.38;234827;1195;139416;-70
2023/03/04 14:38:17;;;;;;;32.00;19.30;;;;;;;3.69;61.89;98647.16;234889;1193;139479;-69
2023/03/04 14:43:21;;;;;;;34.20;19.90;;;;;;;3.68;62.35;98641.94;234894;1195;139256;-70
2023/03/04 14:48:31;;;;;;;31.20;18.70;;;;;;;3.70;62.37;98641.15;234781;1194;139147;-69
2023/03/04 14:53:34;;;;;;;30.70;18.80;;;;;;;3.79;62.64;98641.50;234881;1195;138950;-69
2023/03/04 14:58:53;;;;;;;36.90;19.60;;;;;;;3.86;62.55;98631.89;235026;1198;139854;-69
2023/03/04 15:04:08;;;;;;;35.80;18.90;;;;;;;3.83;62.45;98629.39;234839;1195;139621;-69
2023/03/04 15:09:19;;;;;;;33.20;18.80;;;;;;;3.83;62.78;98626.07;234794;1196;139719;-69
2023/03/04 15:14:44;;;;;;;30.60;18.20;;;;;;;3.98;62.39;98620.00;234808;1197;139603;-68
2023/03/04 15:19:58;;;;;;;30.30;18.10;;;;;;;4.12;61.55;98624.33;234842;1195;139218;-69
2023/03/04 15:26:05;;;;;;;30.20;17.90;;;;;;;4.09;61.23;98623.77;235235;1195;138789;-69
2023/03/04 15:31:20;;;;;;;35.30;19.30;;;;;;;4.10;60.83;98624.58;234763;1193;139562;-71
2023/03/04 15:44:02;;;;;;;34.80;18.70;;;;;;;3.99;60.96;98618.16;234881;1194;138902;-71
2023/03/04 15:49:05;;;;;;;28.20;17.70;;;;;;;4.06;60.78;98624.58;234892;1193;139551;-69
2023/03/04 15:54:12;;;;;;;30.90;18.10;;;;;;;4.14;60.11;98621.77;234822;1193;139214;-69
2023/03/04 15:59:16;;;;;;;30.70;18.00;;;;;;;4.19;59.90;98617.00;235050;1193;138859;-67
2023/03/04 16:04:20;;;;;;;112.50;67.80;;;;;;;4.19;60.04;98609.81;235252;1198;138702;-68
2023/03/04 16:09:23;;;;;;;38.40;18.80;;;;;;;4.25;59.22;98597.05;234781;1193;139685;-70
2023/03/04 16:14:30;;;;;;;28.50;17.00;;;;;;;4.25;58.86;98607.23;234917;1195;139459;-71
2023/03/04 16:19:34;;;;;;;30.20;16.80;;;;;;;4.33;58.78;98601.61;235073;1194;138687;-73
2023/03/04 16:24:38;;;;;;;29.60;17.50;;;;;;;4.35;58.48;98610.17;235087;1196;138595;-71
2023/03/04 16:29:41;;;;;;;26.10;16.00;;;;;;;4.35;58.48;98610.52;234988;1195;138786;-71
2023/03/04 16:34:45;;;;;;;30.70;16.70;;;;;;;4.36;58.19;98612.23;235277;1193;140104;-71
2023/03/04 16:39:49;;;;;;;27.70;16.10;;;;;;;4.36;57.69;98617.31;234946;1194;139579;-70
2023/03/04 16:44:54;;;;;;;29.90;16.90;;;;;;;4.34;57.83;98621.97;235049;1197;138700;-70
2023/03/04 16:49:57;;;;;;;30.40;16.60;;;;;;;4.36;57.51;98621.52;235039;1194;139364;-70
2023/03/04 16:55:03;;;;;;;31.10;17.40;;;;;;;4.36;57.47;98622.91;234985;1194;139559;-71
2023/03/04 17:00:09;;;;;;;27.90;16.90;;;;;;;4.36;57.35;98619.06;235076;1194;139817;-76
2023/03/04 17:05:17;;;;;;;26.90;14.40;;;;;;;4.39;57.14;98616.28;235212;1193;139741;-70
2023/03/04 17:10:22;;;;;;;67.60;40.80;;;;;;;4.38;57.51;98621.77;235030;1198;138572;-72
2023/03/04 17:15:25;;;;;;;31.60;17.80;;;;;;;4.43;56.99;98605.38;234985;1195;138885;-69
2023/03/04 17:20:29;;;;;;;29.00;15.90;;;;;;;4.42;56.87;98600.01;235105;1196;139600;-68
2023/03/04 17:25:32;;;;;;;30.50;16.40;;;;;;;4.38;56.62;98609.12;234658;1194;141501;-71
2023/03/04 17:30:36;;;;;;;31.90;17.30;;;;;;;4.35;56.52;98611.89;235162;1195;139484;-72
2023/03/04 17:35:40;;;;;;;24.80;15.80;;;;;;;4.34;56.87;98614.06;234705;1195;139467;-70
2023/03/04 17:40:43;;;;;;;30.20;16.70;;;;;;;4.34;56.64;98601.75;235254;1193;139419;-69
2023/03/04 17:45:47;;;;;;;31.60;17.00;;;;;;;4.34;56.96;98595.78;235047;1194;138600;-71
2023/03/04 17:50:51;;;;;;;31.90;15.40;;;;;;;4.36;56.51;98594.48;235024;1196;138920;-70
2023/03/04 17:55:58;;;;;;;30.70;15.90;;;;;;;4.37;56.81;98594.09;235014;1193;138854;-71
2023/03/04 18:01:13;;;;;;;27.30;15.70;;;;;;;4.33;56.51;98599.34;235076;1193;139146;-70
2023/03/04 18:06:18;;;;;;;26.60;14.90;;;;;;;4.31;56.70;98599.46;235104;1195;139550;-70
2023/03/04 18:11:24;;;;;;;26.90;16.10;;;;;;;4.31;56.96;98600.48;235192;1195;138749;-70
2023/03/04 18:16:27;;;;;;;29.10;17.90;;;;;;;4.33;56.79;98591.44;235115;1195;138934;-71
2023/03/04 18:21:31;;;;;;;29.70;16.70;;;;;;;4.34;56.87;98593.17;234966;1195;139150;-71
2023/03/04 18:26:34;;;;;;;28.40;16.50;;;;;;;4.29;57.03;98600.23;235073;1195;139168;-71
2023/03/04 18:31:38;;;;;;;30.30;17.30;;;;;;;4.29;57.03;98599.01;235022;1195;139035;-71
2023/03/04 18:36:42;;;;;;;30.70;17.30;;;;;;;4.30;57.12;98562.42;235060;1197;139454;-70
2023/03/04 18:41:45;;;;;;;24.40;14.40;;;;;;;4.31;57.18;98563.45;235054;1198;139401;-70
2023/03/04 18:46:55;;;;;;;27.70;16.00;;;;;;;4.29;57.40;98564.60;235260;1195;139344;-70
2023/03/04 18:51:58;;;;;;;27.20;15.40;;;;;;;4.32;57.42;98551.25;235166;1193;138625;-70
2023/03/04 18:57:08;;;;;;;28.60;16.80;;;;;;;4.31;57.56;98561.14;234974;1195;139914;-70
2023/03/04 19:02:52;;;;;;;26.40;15.70;;;;;;;4.23;58.03;98586.77;234976;1195;139454;-70
2023/03/04 19:07:56;;;;;;;34.60;16.80;;;;;;;4.20;58.25;98590.42;235111;1194;139123;-70
2023/03/04 19:12:59;;;;;;;31.30;18.40;;;;;;;4.23;58.46;98594.69;235055;1194;139638;-68
2023/03/04 19:18:04;;;;;;;30.10;16.80;;;;;;;4.30;58.63;98594.72;235007;1195;138828;-69
2023/03/04 19:23:08;;;;;;;30.40;17.20;;;;;;;4.32;58.44;98594.29;235161;1197;140001;-68
2023/03/04 19:28:12;;;;;;;27.80;16.30;;;;;;;4.32;58.79;98596.77;234783;1198;139137;-69
2023/03/04 19:33:15;;;;;;;27.40;16.00;;;;;;;4.34;58.92;98597.58;235169;1195;139467;-70
2023/03/04 19:38:18;;;;;;;30.40;18.00;;;;;;;4.33;58.89;98598.63;231164;1195;138685;-69
2023/03/04 19:43:22;;;;;;;28.60;17.50;;;;;;;4.40;59.02;98594.81;235075;1195;138734;-69
2023/03/04 19:48:25;;;;;;;29.70;17.70;;;;;;;4.45;59.08;98603.75;235105;1197;138627;-71
2023/03/04 19:53:28;;;;;;;28.00;17.30;;;;;;;4.46;59.27;98606.14;235101;1194;139405;-70
2023/03/04 19:58:32;;;;;;;25.00;16.20;;;;;;;4.45;59.27;98609.38;235257;1193;139452;-70
2023/03/04 20:03:35;;;;;;;30.00;17.50;;;;;;;4.47;59.52;98612.09;235112;1198;138905;-70
2023/03/04 20:08:39;;;;;;;68.20;41.10;;;;;;;4.54;60.00;98613.20;233662;1195;139757;-69
2023/03/04 20:13:42;;;;;;;29.10;16.20;;;;;;;4.66;59.60;98613.54;235048;1195;140023;-70
2023/03/04 20:18:45;;;;;;;26.60;17.40;;;;;;;4.73;59.43;98611.63;230965;1193;141822;-70
2023/03/04 20:23:49;;;;;;;26.50;16.00;;;;;;;4.75;59.26;98617.87;235076;1195;139036;-70
2023/03/04 20:28:53;;;;;;;26.70;16.30;;;;;;;4.80;59.21;98616.59;235120;1195;139772;-71
2023/03/04 20:33:58;;;;;;;28.60;16.80;;;;;;;4.84;59.26;98625.38;235008;1198;139325;-70
2023/03/04 20:39:02;;;;;;;28.50;16.30;;;;;;;4.76;59.41;98656.63;234912;1199;139528;-70
2023/03/04 20:44:20;;;;;;;13.50;7.60;;;;;;;4.69;60.13;98669.98;234900;1199;139638;-70
2023/03/04 20:49:26;;;;;;;9.30;4.90;;;;;;;4.52;59.60;98675.80;235025;1198;139460;-70
2023/03/04 20:54:29;;;;;;;7.10;4.30;;;;;;;4.40;59.32;98661.05;235114;1198;138405;-70
2023/03/04 20:59:34;;;;;;;5.00;2.90;;;;;;;4.34;59.04;98657.77;235060;1193;139736;-70
2023/03/04 21:04:37;;;;;;;4.00;2.60;;;;;;;4.32;58.45;98655.23;235254;1196;138806;-68
2023/03/04 21:09:42;;;;;;;4.50;2.40;;;;;;;4.25;58.02;98653.09;235160;1195;138489;-69
2023/03/04 21:14:46;;;;;;;6.70;2.80;;;;;;;4.30;58.37;98651.81;235164;1195;138914;-69
2023/03/04 21:19:49;;;;;;;6.10;3.30;;;;;;;4.35;58.95;98649.33;235168;1197;138507;-68
2023/03/04 21:24:52;;;;;;;6.30;3.70;;;;;;;4.35;59.57;98643.86;235156;1194;138662;-68
2023/03/04 21:29:57;;;;;;;7.70;4.50;;;;;;;4.33;59.81;98643.25;235007;1195;139225;-68
2023/03/04 21:35:00;;;;;;;7.40;4.00;;;;;;;4.39;60.02;98642.31;235123;1198;138867;-68
2023/03/04 21:40:04;;;;;;;7.00;3.90;;;;;;;4.34;60.15;98645.15;235069;1195;139056;-71
2023/03/04 21:45:09;;;;;;;8.30;4.20;;;;;;;4.31;60.33;98644.93;235111;1193;138880;-70
2023/03/04 21:50:13;;;;;;;6.90;3.10;;;;;;;4.31;59.92;98648.09;235090;1195;139051;-70
2023/03/04 21:55:16;;;;;;;5.30;2.90;;;;;;;4.35;59.51;98650.53;235124;1196;139089;-70
2023/03/04 22:00:20;;;;;;;5.90;2.80;;;;;;;4.38;59.54;98644.61;235171;1197;139421;-71
2023/03/04 22:05:23;;;;;;;5.30;2.70;;;;;;;4.31;59.46;98641.95;235294;1196;138194;-70
2023/03/04 22:10:27;;;;;;;5.30;3.00;;;;;;;4.25;59.72;98638.48;235161;1196;138854;-69
2023/03/04 22:15:31;;;;;;;4.90;2.60;;;;;;;4.21;59.75;98635.69;235108;1197;209986;-70
2023/03/04 22:20:37;;;;;;;6.10;2.90;;;;;;;4.22;59.88;98632.32;233067;1198;139441;-70
2023/03/04 22:25:41;;;;;;;7.20;3.00;;;;;;;4.22;60.13;98628.63;235162;1195;138772;-71
2023/03/04 22:30:44;;;;;;;6.80;3.10;;;;;;;4.21;59.98;98623.08;231786;1199;138879;-72
2023/03/04 22:35:48;;;;;;;5.20;3.00;;;;;;;4.20;59.60;98629.24;234468;1197;138926;-70
2023/03/04 22:40:52;;;;;;;6.20;3.40;;;;;;;4.19;59.57;98629.48;235267;1197;139671;-69
2023/03/04 22:45:58;;;;;;;8.20;3.80;;;;;;;4.21;59.40;98633.05;235079;1195;139282;-69
2023/03/04 22:51:07;;;;;;;10.90;4.20;;;;;;;4.29;59.16;98638.52;235029;1195;138339;-70
2023/03/04 22:56:11;;;;;;;6.90;3.80;;;;;;;4.33;59.19;98640.47;235175;1194;139712;-70
2023/03/04 23:01:16;;;;;;;8.40;4.50;;;;;;;4.34;59.62;98640.74;234472;1196;138629;-70
2023/03/04 23:06:26;;;;;;;8.90;4.00;;;;;;;4.31;59.67;98645.09;233926;1199;139391;-71
2023/03/04 23:11:34;;;;;;;8.90;4.10;;;;;;;4.27;59.78;98649.98;235139;1196;138618;-72
2023/03/04 23:16:42;;;;;;;7.20;4.30;;;;;;;4.25;59.77;98651.69;235140;1195;139181;-70
2023/03/04 23:21:45;;;;;;;11.10;5.00;;;;;;;4.24;59.75;98650.11;235094;1197;138642;-70
2023/03/04 23:26:51;;;;;;;8.40;4.70;;;;;;;4.23;60.01;98651.59;235152;1197;139714;-71